createdAt,value
2023-11-12T00:00:04.422Z,4.63
2023-11-12T00:02:31.399Z,4.33
2023-11-12T00:04:58.236Z,4.28
2023-11-12T00:07:24.998Z,4.45
2023-11-12T00:09:51.887Z,4.70
2023-11-12T00:12:20.568Z,3.83
2023-11-12T00:14:47.581Z,4.83
2023-11-12T00:17:15.038Z,4.43
2023-11-12T00:19:42.177Z,4.20
2023-11-12T00:22:10.525Z,4.57
2023-11-12T00:24:37.324Z,4.78
2023-11-12T00:27:04.133Z,4.43
2023-11-12T00:29:31.025Z,4.22
2023-11-12T00:31:58.287Z,5.13
2023-11-12T00:34:25.066Z,4.65
2023-11-12T00:36:52.331Z,5.30
2023-11-12T00:39:19.177Z,4.83
2023-11-12T00:41:45.945Z,4.25
2023-11-12T00:44:12.861Z,5.32
2023-11-12T00:46:41.897Z,5.15
2023-11-12T00:49:09.122Z,4.85
2023-11-12T00:51:36.968Z,5.07
2023-11-12T00:54:03.991Z,5.00
2023-11-12T00:56:31.133Z,5.15
2023-11-12T00:58:58.006Z,5.40
2023-11-12T01:01:25.067Z,5.18
2023-11-12T01:03:52.002Z,5.80
2023-11-12T01:06:18.845Z,4.75
2023-11-12T01:08:46.968Z,5.20
2023-11-12T01:11:14.521Z,6.00
2023-11-12T01:13:41.565Z,5.38
2023-11-12T01:16:10.134Z,5.13
2023-11-12T01:18:41.412Z,4.97
2023-11-12T01:21:08.418Z,6.13
2023-11-12T01:23:35.531Z,5.57
2023-11-12T01:26:02.317Z,5.53
2023-11-12T01:28:33.759Z,5.73
2023-11-12T01:31:01.545Z,5.82
2023-11-12T01:33:29.183Z,5.90
2023-11-12T01:35:56.714Z,6.55
2023-11-12T01:38:23.484Z,5.85
2023-11-12T01:40:50.334Z,6.13
2023-11-12T01:43:17.626Z,5.72
2023-11-12T01:45:44.782Z,6.30
2023-11-12T01:48:15.257Z,5.80
2023-11-12T01:50:43.904Z,6.20
2023-11-12T01:53:14.400Z,5.37
2023-11-12T01:55:42.003Z,5.70
2023-11-12T01:58:10.780Z,5.95
2023-11-12T02:00:41.099Z,6.03
2023-11-12T02:03:10.755Z,5.35
2023-11-12T02:05:37.663Z,5.17
2023-11-12T02:08:06.284Z,6.00
2023-11-12T02:10:37.184Z,5.88
2023-11-12T02:13:07.951Z,5.78
2023-11-12T02:15:35.897Z,6.28
2023-11-12T02:18:03.036Z,6.40
2023-11-12T02:20:29.856Z,5.55
2023-11-12T02:22:56.886Z,6.22
2023-11-12T02:25:23.830Z,5.95
2023-11-12T02:27:50.741Z,5.90
2023-11-12T02:30:20.174Z,5.70
2023-11-12T02:32:48.365Z,5.63
2023-11-12T02:35:15.605Z,6.07
2023-11-12T02:37:42.618Z,6.25
2023-11-12T02:40:10.028Z,6.70
2023-11-12T02:42:38.374Z,5.57
2023-11-12T02:45:06.584Z,6.07
2023-11-12T02:47:33.396Z,6.28
2023-11-12T02:50:05.136Z,6.88
2023-11-12T02:52:32.512Z,6.15
2023-11-12T02:55:00.023Z,6.53
2023-11-12T02:57:28.398Z,6.40
2023-11-12T02:59:56.672Z,6.40
2023-11-12T03:02:23.524Z,6.45
2023-11-12T03:04:52.113Z,6.18
2023-11-12T03:07:19.951Z,6.40
2023-11-12T03:09:48.166Z,6.55
2023-11-12T03:12:15.500Z,6.60
2023-11-12T03:14:43.381Z,6.10
2023-11-12T03:17:10.151Z,6.93
2023-11-12T03:19:38.733Z,7.17
2023-11-12T03:22:06.621Z,6.50
2023-11-12T03:24:35.858Z,6.40
2023-11-12T03:27:02.605Z,6.63
2023-11-12T03:29:29.560Z,5.72
2023-11-12T03:31:56.319Z,5.87
2023-11-12T03:34:25.981Z,6.43
2023-11-12T03:36:53.189Z,6.32
2023-11-12T03:39:20.074Z,6.85
2023-11-12T03:41:47.142Z,5.68
2023-11-12T03:44:13.900Z,6.50
2023-11-12T03:46:40.931Z,6.40
2023-11-12T03:49:08.552Z,6.32
2023-11-12T03:51:35.487Z,6.50
2023-11-12T03:54:03.313Z,6.47
2023-11-12T03:56:30.833Z,6.97
2023-11-12T03:58:58.334Z,6.32
2023-11-12T04:01:25.988Z,6.35
2023-11-12T04:03:53.475Z,6.05
2023-11-12T04:06:21.223Z,5.60
2023-11-12T04:08:48.114Z,6.38
2023-11-12T04:11:14.986Z,6.47
2023-11-12T04:13:41.809Z,6.22
2023-11-12T04:16:09.918Z,7.38
2023-11-12T04:18:37.670Z,6.57
2023-11-12T04:21:08.060Z,6.68
2023-11-12T04:23:34.872Z,6.60
2023-11-12T04:26:02.837Z,5.85
2023-11-12T04:28:30.286Z,7.38
2023-11-12T04:30:58.266Z,6.43
2023-11-12T04:33:25.230Z,6.53
2023-11-12T04:35:53.556Z,6.60
2023-11-12T04:38:21.590Z,7.07
2023-11-12T04:40:51.284Z,6.88
2023-11-12T04:43:18.064Z,6.97
2023-11-12T04:45:45.438Z,6.68
2023-11-12T04:48:12.812Z,6.85
2023-11-12T04:50:39.901Z,5.93
2023-11-12T04:53:07.368Z,5.72
2023-11-12T04:55:35.166Z,5.57
2023-11-12T04:58:08.495Z,5.88
2023-11-12T05:00:35.346Z,5.70
2023-11-12T05:03:05.700Z,6.05
2023-11-12T05:05:33.267Z,5.75
2023-11-12T05:08:00.255Z,6.43
2023-11-12T05:10:44.185Z,6.05
2023-11-12T05:13:13.498Z,5.93
2023-11-12T05:15:40.346Z,6.03
2023-11-12T05:18:07.934Z,6.60
2023-11-12T05:20:35.142Z,5.63
2023-11-12T05:23:02.759Z,6.45
2023-11-12T05:25:30.654Z,6.45
2023-11-12T05:27:57.431Z,6.32
2023-11-12T05:30:24.467Z,7.13
2023-11-12T05:32:52.205Z,6.85
2023-11-12T05:35:19.945Z,7.22
2023-11-12T05:37:48.746Z,7.38
2023-11-12T05:40:16.038Z,6.45
2023-11-12T05:42:43.584Z,7.10
2023-11-12T05:45:10.655Z,7.53
2023-11-12T05:47:37.634Z,7.22
2023-11-12T05:50:05.013Z,7.70
2023-11-12T05:52:31.864Z,7.68
2023-11-12T05:54:58.785Z,7.67
2023-11-12T05:57:25.587Z,6.95
2023-11-12T05:59:52.362Z,7.53
2023-11-12T06:02:19.913Z,8.20
2023-11-12T06:04:46.626Z,7.82
2023-11-12T06:07:13.472Z,7.60
2023-11-12T06:09:40.344Z,6.95
2023-11-12T06:12:08.984Z,7.38
2023-11-12T06:14:37.575Z,7.57
2023-11-12T06:17:05.555Z,7.97
2023-11-12T06:19:32.396Z,7.60
2023-11-12T06:22:01.211Z,6.68
2023-11-12T06:24:28.178Z,6.93
2023-11-12T06:26:54.987Z,7.85
2023-11-12T06:29:21.830Z,6.88
2023-11-12T06:31:48.559Z,7.63
2023-11-12T06:34:15.349Z,7.43
2023-11-12T06:36:42.328Z,8.50
2023-11-12T06:39:09.081Z,7.38
2023-11-12T06:41:35.829Z,8.32
2023-11-12T06:44:02.717Z,8.17
2023-11-12T06:46:29.567Z,8.40
2023-11-12T06:48:56.312Z,8.48
2023-11-12T06:51:27.488Z,9.68
2023-11-12T06:53:54.197Z,8.27
2023-11-12T06:56:21.772Z,8.90
2023-11-12T06:58:49.536Z,9.18
2023-11-12T07:01:16.337Z,9.00
2023-11-12T07:03:43.729Z,8.50
2023-11-12T07:06:10.573Z,9.02
2023-11-12T07:08:37.301Z,9.00
2023-11-12T07:11:05.003Z,9.38
2023-11-12T07:13:31.747Z,8.73
2023-11-12T07:15:58.696Z,9.25
2023-11-12T07:18:25.622Z,8.63
2023-11-12T07:20:52.521Z,9.90
2023-11-12T07:23:19.410Z,8.68
2023-11-12T07:25:46.592Z,8.95
2023-11-12T07:28:13.377Z,9.38
2023-11-12T07:30:40.226Z,9.15
2023-11-12T07:33:07.370Z,9.53
2023-11-12T07:35:34.551Z,9.38
2023-11-12T07:38:02.116Z,8.73
2023-11-12T07:40:29.024Z,9.23
2023-11-12T07:42:57.759Z,9.13
2023-11-12T07:45:31.575Z,8.97
2023-11-12T07:48:01.951Z,8.95
2023-11-12T07:50:29.612Z,9.77
2023-11-12T07:52:56.495Z,9.45
2023-11-12T07:55:23.933Z,9.32
2023-11-12T07:57:50.702Z,9.83
2023-11-12T08:00:18.035Z,10.07
2023-11-12T08:02:46.808Z,9.48
2023-11-12T08:05:13.862Z,8.80
2023-11-12T08:07:41.580Z,9.25
2023-11-12T08:10:09.681Z,9.73
2023-11-12T08:12:37.845Z,9.50
2023-11-12T08:15:06.471Z,9.02
2023-11-12T08:17:33.647Z,9.95
2023-11-12T08:20:00.489Z,9.20
2023-11-12T08:22:27.910Z,9.60
2023-11-12T08:24:56.003Z,9.02
2023-11-12T08:27:23.948Z,9.65
2023-11-12T08:29:53.946Z,10.32
2023-11-12T08:32:20.702Z,10.55
2023-11-12T08:34:47.531Z,9.87
2023-11-12T08:37:14.533Z,10.25
2023-11-12T08:39:41.980Z,10.13
2023-11-12T08:42:08.932Z,10.48
2023-11-12T08:44:35.740Z,9.60
2023-11-12T08:47:03.112Z,9.30
2023-11-12T08:49:33.276Z,9.82
2023-11-12T08:52:00.515Z,8.82
2023-11-12T08:54:27.383Z,9.32
2023-11-12T08:56:54.543Z,9.80
2023-11-12T08:59:21.856Z,8.90
2023-11-12T09:01:48.624Z,9.52
2023-11-12T09:04:15.486Z,9.20
2023-11-12T09:06:42.313Z,9.13
2023-11-12T09:09:10.196Z,8.85
2023-11-12T09:11:37.762Z,10.33
2023-11-12T09:14:06.879Z,9.82
2023-11-12T09:16:34.768Z,9.57
2023-11-12T09:19:01.798Z,8.95
2023-11-12T09:21:32.360Z,9.23
2023-11-12T09:23:59.778Z,8.40
2023-11-12T09:26:26.615Z,9.25
2023-11-12T09:28:53.369Z,9.55
2023-11-12T09:31:20.800Z,9.20
2023-11-12T09:33:48.286Z,9.40
2023-11-12T09:36:15.889Z,8.97
2023-11-12T09:38:42.956Z,9.25
2023-11-12T09:41:13.623Z,9.75
2023-11-12T09:43:40.614Z,9.38
2023-11-12T09:46:10.687Z,10.00
2023-11-12T09:48:43.520Z,10.47
2023-11-12T09:51:13.448Z,9.10
2023-11-12T09:53:42.241Z,9.05
2023-11-12T09:56:10.522Z,10.48
2023-11-12T09:58:38.989Z,10.38
2023-11-12T10:01:08.992Z,11.43
2023-11-12T10:03:37.000Z,10.43
2023-11-12T10:06:07.499Z,10.32
2023-11-12T10:08:37.405Z,9.52
2023-11-12T10:11:24.631Z,9.52
2023-11-12T10:13:52.916Z,10.43
2023-11-12T10:16:30.250Z,11.02
2023-11-12T10:19:17.410Z,12.05
2023-11-12T10:21:58.128Z,11.80
2023-11-12T10:24:29.727Z,13.20
2023-11-12T10:27:08.977Z,15.73
2023-11-12T10:29:35.762Z,14.95
2023-11-12T10:32:02.621Z,16.17
2023-11-12T10:34:29.565Z,17.13
2023-11-12T10:37:02.054Z,18.10
2023-11-12T10:39:36.839Z,18.57
2023-11-12T10:42:04.046Z,16.80
2023-11-12T10:44:34.684Z,17.48
2023-11-12T10:47:05.672Z,18.35
2023-11-12T10:49:35.109Z,17.67
2023-11-12T10:52:04.378Z,17.63
2023-11-12T10:54:33.685Z,17.65
2023-11-12T10:57:01.786Z,16.90
2023-11-12T10:59:32.268Z,17.70
2023-11-12T11:02:00.558Z,17.45
2023-11-12T11:04:30.298Z,16.30
2023-11-12T11:06:57.180Z,16.58
2023-11-12T11:09:24.177Z,15.43
2023-11-12T11:11:51.424Z,16.20
2023-11-12T11:14:30.492Z,16.63
2023-11-12T11:16:58.803Z,16.33
2023-11-12T11:19:55.135Z,14.75
2023-11-12T11:22:35.218Z,13.40
2023-11-12T11:25:26.436Z,13.73
2023-11-12T11:28:18.581Z,13.43
2023-11-12T11:31:11.117Z,11.30
2023-11-12T11:33:48.914Z,11.73
2023-11-12T11:36:21.765Z,11.25
2023-11-12T11:39:03.974Z,10.13
2023-11-12T11:41:37.226Z,9.93
2023-11-12T11:44:42.815Z,10.17
2023-11-12T11:47:16.793Z,9.32
2023-11-12T11:49:46.783Z,9.45
2023-11-12T11:52:27.644Z,9.23
2023-11-12T11:55:03.641Z,9.30
2023-11-12T11:57:31.040Z,9.80
2023-11-12T11:59:59.674Z,9.45
2023-11-12T12:02:26.870Z,8.18
2023-11-12T12:04:58.532Z,6.90
2023-11-12T12:07:27.821Z,8.25
2023-11-12T12:09:59.448Z,7.63
2023-11-12T12:12:27.408Z,7.60
2023-11-12T12:14:55.854Z,6.90
2023-11-12T12:17:23.396Z,7.47
2023-11-12T12:19:56.381Z,7.15
2023-11-12T12:22:30.121Z,7.17
2023-11-12T12:24:59.111Z,7.07
2023-11-12T12:27:26.303Z,7.15
2023-11-12T12:29:54.231Z,6.88
2023-11-12T12:32:21.640Z,6.90
2023-11-12T12:34:59.482Z,6.50
2023-11-12T12:37:28.909Z,6.93
2023-11-12T12:40:12.119Z,6.97
2023-11-12T12:42:39.811Z,6.65
2023-11-12T12:45:16.845Z,6.40
2023-11-12T12:47:45.195Z,6.53
2023-11-12T12:50:34.026Z,6.00
2023-11-12T12:53:19.514Z,5.53
2023-11-12T12:55:47.363Z,5.65
2023-11-12T12:58:15.408Z,6.13
2023-11-12T13:00:46.559Z,6.47
2023-11-12T13:03:36.488Z,6.00
2023-11-12T13:06:09.503Z,5.50
2023-11-12T13:08:36.580Z,6.10
2023-11-12T13:11:04.089Z,5.85
2023-11-12T13:13:31.897Z,5.83
2023-11-12T13:15:58.963Z,6.25
2023-11-12T13:18:26.736Z,5.50
2023-11-12T13:20:53.625Z,6.25
2023-11-12T13:23:20.472Z,6.65
2023-11-12T13:25:52.526Z,6.37
2023-11-12T13:28:19.458Z,6.80
2023-11-12T13:30:48.158Z,6.20
2023-11-12T13:33:15.960Z,6.45
2023-11-12T13:35:43.261Z,6.57
2023-11-12T13:38:11.174Z,6.30
2023-11-12T13:40:41.335Z,6.03
2023-11-12T13:43:08.461Z,6.70
2023-11-12T13:45:39.024Z,6.60
2023-11-12T13:48:07.418Z,6.40
2023-11-12T13:50:36.563Z,10.97
2023-11-12T13:53:10.133Z,7.93
2023-11-12T13:55:38.514Z,8.18
2023-11-12T13:58:07.451Z,7.25
2023-11-12T14:00:34.350Z,6.63
2023-11-12T14:03:02.092Z,7.40
2023-11-12T14:05:29.321Z,9.00
2023-11-12T14:07:57.148Z,10.63
2023-11-12T14:10:24.438Z,8.50
2023-11-12T14:12:51.446Z,7.40
2023-11-12T14:15:19.664Z,7.80
2023-11-12T14:17:47.087Z,7.72
2023-11-12T14:20:23.461Z,8.13
2023-11-12T14:22:52.008Z,8.63
2023-11-12T14:25:22.470Z,8.10
2023-11-12T14:27:50.251Z,8.80
2023-11-12T14:30:19.256Z,8.38
2023-11-12T14:32:46.648Z,7.35
2023-11-12T14:35:13.829Z,8.23
2023-11-12T14:37:40.718Z,7.93
2023-11-12T14:40:11.362Z,8.60
2023-11-12T14:42:39.489Z,8.50
2023-11-12T14:45:14.785Z,8.65
2023-11-12T14:47:48.357Z,7.65
2023-11-12T14:50:17.459Z,8.38
2023-11-12T14:52:44.593Z,9.03
2023-11-12T14:55:22.029Z,7.93
2023-11-12T14:57:54.945Z,8.93
2023-11-12T15:00:28.991Z,8.45
2023-11-12T15:03:01.556Z,9.55
2023-11-12T15:05:31.832Z,10.10
2023-11-12T15:07:58.661Z,8.10
2023-11-12T15:10:25.474Z,9.80
2023-11-12T15:12:52.560Z,9.02
2023-11-12T15:15:20.682Z,8.70
2023-11-12T15:17:48.047Z,9.17
2023-11-12T15:20:14.961Z,9.40
2023-11-12T15:22:43.149Z,8.30
2023-11-12T15:25:12.364Z,9.50
2023-11-12T15:27:39.859Z,8.50
2023-11-12T15:30:07.296Z,9.00
2023-11-12T15:32:34.062Z,8.48
2023-11-12T15:35:00.785Z,8.45
2023-11-12T15:37:28.552Z,7.25
2023-11-12T15:39:56.492Z,8.35
2023-11-12T15:42:24.997Z,7.50
2023-11-12T15:44:51.796Z,8.48
2023-11-12T15:47:20.724Z,8.00
2023-11-12T15:49:47.837Z,7.90
2023-11-12T15:52:14.977Z,7.88
2023-11-12T15:54:48.221Z,7.93
2023-11-12T15:57:16.730Z,8.43
2023-11-12T15:59:43.456Z,9.57
2023-11-12T16:02:10.194Z,9.82
2023-11-12T16:04:37.217Z,9.93
2023-11-12T16:07:04.315Z,10.37
2023-11-12T16:09:31.592Z,10.77
2023-11-12T16:11:59.103Z,9.80
2023-11-12T16:14:25.945Z,8.77
2023-11-12T16:16:52.733Z,8.85
2023-11-12T16:19:19.541Z,8.77
2023-11-12T16:21:49.640Z,9.23
2023-11-12T16:24:17.057Z,8.90
2023-11-12T16:26:44.432Z,9.35
2023-11-12T16:29:11.512Z,9.95
2023-11-12T16:31:38.281Z,11.03
2023-11-12T16:34:05.131Z,12.02
2023-11-12T16:36:31.965Z,12.20
2023-11-12T16:38:58.747Z,12.55
2023-11-12T16:41:25.857Z,10.82
2023-11-12T16:43:53.953Z,11.27
2023-11-12T16:46:20.777Z,12.70
2023-11-12T16:48:47.651Z,11.23
2023-11-12T16:51:15.731Z,12.30
2023-11-12T16:53:43.596Z,12.13
2023-11-12T16:56:11.992Z,11.93
2023-11-12T16:58:41.041Z,12.00
2023-11-12T17:01:08.331Z,12.45
2023-11-12T17:03:35.181Z,11.98
2023-11-12T17:06:02.407Z,12.20
2023-11-12T17:08:30.276Z,12.17
2023-11-12T17:10:57.069Z,12.90
2023-11-12T17:13:23.962Z,12.20
2023-11-12T17:15:50.962Z,13.52
2023-11-12T17:18:17.877Z,14.15
2023-11-12T17:20:44.725Z,12.77
2023-11-12T17:23:11.544Z,13.85
2023-11-12T17:25:38.375Z,13.45
2023-11-12T17:28:05.266Z,13.30
2023-11-12T17:30:34.354Z,12.20
2023-11-12T17:33:01.133Z,13.50
2023-11-12T17:35:28.019Z,13.55
2023-11-12T17:37:55.077Z,12.50
2023-11-12T17:40:21.871Z,14.70
2023-11-12T17:42:49.341Z,16.33
2023-11-12T17:45:16.762Z,18.90
2023-11-12T17:47:43.591Z,16.05
2023-11-12T17:50:11.342Z,16.40
2023-11-12T17:52:39.820Z,14.38
2023-11-12T17:55:07.285Z,14.23
2023-11-12T17:57:35.832Z,13.73
2023-11-12T18:00:02.716Z,13.23
2023-11-12T18:02:40.860Z,12.05
2023-11-12T18:05:08.132Z,11.80
2023-11-12T18:07:35.393Z,12.77
2023-11-12T18:10:03.472Z,12.40
2023-11-12T18:12:30.359Z,11.70
2023-11-12T18:15:00.613Z,12.68
2023-11-12T18:17:27.479Z,12.00
2023-11-12T18:19:55.281Z,12.82
2023-11-12T18:22:26.889Z,13.10
2023-11-12T18:24:53.972Z,11.40
2023-11-12T18:27:21.219Z,11.77
2023-11-12T18:29:48.395Z,12.18
2023-11-12T18:32:15.175Z,12.38
2023-11-12T18:34:48.400Z,12.67
2023-11-12T18:37:15.661Z,12.18
2023-11-12T18:39:42.564Z,12.73
2023-11-12T18:42:09.671Z,12.43
2023-11-12T18:44:36.893Z,12.43
2023-11-12T18:47:06.774Z,13.17
2023-11-12T18:49:33.790Z,12.20
2023-11-12T18:52:04.146Z,11.43
2023-11-12T18:54:31.632Z,12.05
2023-11-12T18:56:58.433Z,12.23
2023-11-12T18:59:25.292Z,12.37
2023-11-12T19:01:52.436Z,12.15
2023-11-12T19:04:19.341Z,11.68
2023-11-12T19:06:49.929Z,12.85
2023-11-12T19:09:17.177Z,11.65
2023-11-12T19:11:43.993Z,13.47
2023-11-12T19:14:11.505Z,14.40
2023-11-12T19:16:39.157Z,12.60
2023-11-12T19:19:07.027Z,12.13
2023-11-12T19:21:37.185Z,12.32
2023-11-12T19:24:07.717Z,13.40
2023-11-12T19:26:34.469Z,12.85
2023-11-12T19:29:03.719Z,12.02
2023-11-12T19:31:33.705Z,12.00
2023-11-12T19:34:01.210Z,11.15
2023-11-12T19:36:27.984Z,13.23
2023-11-12T19:38:54.794Z,12.55
2023-11-12T19:41:23.121Z,12.15
2023-11-12T19:43:49.921Z,13.98
2023-11-12T19:46:16.899Z,12.23
2023-11-12T19:48:43.720Z,12.53
2023-11-12T19:51:10.530Z,11.93
2023-11-12T19:53:41.248Z,11.57
2023-11-12T19:56:08.240Z,13.10
2023-11-12T19:58:35.074Z,12.20
2023-11-12T20:01:02.007Z,12.57
2023-11-12T20:03:28.894Z,12.70
2023-11-12T20:05:55.650Z,12.48
2023-11-12T20:08:23.386Z,13.20
2023-11-12T20:10:50.496Z,14.67
2023-11-12T20:13:17.449Z,13.65
2023-11-12T20:15:44.409Z,12.73
2023-11-12T20:18:11.258Z,12.00
2023-11-12T20:20:43.063Z,12.00
2023-11-12T20:23:11.504Z,12.27
2023-11-12T20:25:38.629Z,12.63
2023-11-12T20:28:12.147Z,11.85
2023-11-12T20:30:40.991Z,11.15
2023-11-12T20:33:07.956Z,11.63
2023-11-12T20:35:34.782Z,11.10
2023-11-12T20:38:01.555Z,11.25
2023-11-12T20:40:28.308Z,11.52
2023-11-12T20:42:56.811Z,9.48
2023-11-12T20:45:23.734Z,12.17
2023-11-12T20:47:53.677Z,11.48
2023-11-12T20:50:21.104Z,11.48
2023-11-12T20:52:47.971Z,12.82
2023-11-12T20:55:17.891Z,12.57
2023-11-12T20:57:48.127Z,12.43
2023-11-12T21:00:19.870Z,12.52
2023-11-12T21:02:49.012Z,12.23
2023-11-12T21:05:17.289Z,11.25
2023-11-12T21:07:44.013Z,12.03
2023-11-12T21:10:10.924Z,13.65
2023-11-12T21:12:37.812Z,16.70
2023-11-12T21:15:07.284Z,15.70
2023-11-12T21:17:34.107Z,15.38
2023-11-12T21:20:01.365Z,15.10
2023-11-12T21:22:28.537Z,16.20
2023-11-12T21:24:55.514Z,15.40
2023-11-12T21:27:22.538Z,16.42
2023-11-12T21:29:49.391Z,16.17
2023-11-12T21:32:16.205Z,17.67
2023-11-12T21:34:42.991Z,14.55
2023-11-12T21:37:09.750Z,18.80
2023-11-12T21:39:36.880Z,17.50
2023-11-12T21:42:08.125Z,20.70
2023-11-12T21:44:36.361Z,19.63
2023-11-12T21:47:04.044Z,15.15
2023-11-12T21:49:31.076Z,12.65
2023-11-12T21:51:59.105Z,14.50
2023-11-12T21:54:26.544Z,18.88
2023-11-12T21:56:54.561Z,15.20
2023-11-12T21:59:22.292Z,12.82
2023-11-12T22:01:50.575Z,15.70
2023-11-12T22:04:22.474Z,14.30
2023-11-12T22:06:49.561Z,13.95
2023-11-12T22:09:16.371Z,12.03
2023-11-12T22:11:47.739Z,12.98
2023-11-12T22:14:14.798Z,13.30
2023-11-12T22:16:44.971Z,12.15
2023-11-12T22:19:13.052Z,11.53
2023-11-12T22:21:41.228Z,12.77
2023-11-12T22:24:08.695Z,12.05
2023-11-12T22:26:37.330Z,12.63
2023-11-12T22:29:04.129Z,11.38
2023-11-12T22:31:31.229Z,11.40
2023-11-12T22:33:58.187Z,11.15
2023-11-12T22:36:25.214Z,10.93
2023-11-12T22:38:52.977Z,11.57
2023-11-12T22:41:19.717Z,11.48
2023-11-12T22:43:46.716Z,11.00
2023-11-12T22:46:13.783Z,11.35
2023-11-12T22:48:41.973Z,11.68
2023-11-12T22:51:10.169Z,10.73
2023-11-12T22:53:38.272Z,10.27
2023-11-12T22:56:05.415Z,10.47
2023-11-12T22:58:32.230Z,11.05
2023-11-12T23:01:05.174Z,10.07
2023-11-12T23:03:35.233Z,9.13
2023-11-12T23:06:02.172Z,9.70
2023-11-12T23:08:29.267Z,9.25
2023-11-12T23:10:56.717Z,9.50
2023-11-12T23:13:23.675Z,9.90
2023-11-12T23:15:51.230Z,10.27
2023-11-12T23:18:20.217Z,9.97
2023-11-12T23:20:52.464Z,11.57
2023-11-12T23:23:26.096Z,10.95
2023-11-12T23:25:53.782Z,10.48
2023-11-12T23:28:20.715Z,11.52
2023-11-12T23:30:47.639Z,11.68
2023-11-12T23:33:15.115Z,11.23
2023-11-12T23:35:41.903Z,11.98
2023-11-12T23:38:08.687Z,11.73
2023-11-12T23:40:36.065Z,11.17
2023-11-12T23:43:02.858Z,11.45
2023-11-12T23:45:29.575Z,12.00
2023-11-12T23:47:56.452Z,11.40
2023-11-12T23:50:25.754Z,10.88
2023-11-12T23:52:52.731Z,11.17
2023-11-12T23:55:19.561Z,10.77
2023-11-12T23:57:47.130Z,11.80
